createdAt,value
2019-04-10T00:00:44.834Z,21.93
2019-04-10T00:03:25.928Z,22.07
2019-04-10T00:05:47.951Z,24.03
2019-04-10T00:08:17.881Z,22.67
2019-04-10T00:10:47.918Z,19.60
2019-04-10T00:13:18.433Z,21.27
2019-04-10T00:15:48.717Z,21.20
2019-04-10T00:18:18.697Z,24.57
2019-04-10T00:20:49.123Z,23.20
2019-04-10T00:23:19.323Z,22.23
2019-04-10T00:25:48.976Z,20.23
2019-04-10T00:28:19.160Z,22.67
2019-04-10T00:30:49.383Z,22.33
2019-04-10T00:33:19.040Z,19.77
2019-04-10T00:35:49.867Z,19.90
2019-04-10T00:38:19.838Z,20.57
2019-04-10T00:40:49.960Z,20.53
2019-04-10T00:43:19.608Z,23.70
2019-04-10T00:45:49.444Z,20.60
2019-04-10T00:48:19.811Z,23.63
2019-04-10T00:50:50.878Z,21.83
2019-04-10T00:53:21.214Z,20.83
2019-04-10T00:55:50.949Z,20.30
2019-04-10T00:58:20.509Z,19.80
2019-04-10T01:00:50.426Z,19.37
2019-04-10T01:03:38.275Z,19.93
2019-04-10T01:06:08.149Z,19.33
2019-04-10T01:08:37.706Z,18.47
2019-04-10T01:11:08.374Z,16.53
2019-04-10T01:13:38.611Z,18.27
2019-04-10T01:16:09.219Z,18.30
2019-04-10T01:18:39.509Z,17.77
2019-04-10T01:21:11.005Z,18.33
2019-04-10T01:23:41.421Z,16.63
2019-04-10T01:26:11.162Z,15.17
2019-04-10T01:28:40.901Z,16.60
2019-04-10T01:31:10.871Z,18.67
2019-04-10T01:33:40.947Z,17.27
2019-04-10T01:36:10.998Z,17.87
2019-04-10T01:38:40.599Z,17.47
2019-04-10T01:41:10.161Z,15.57
2019-04-10T01:43:40.021Z,15.00
2019-04-10T01:46:10.313Z,15.37
2019-04-10T01:48:39.998Z,18.20
2019-04-10T01:51:09.563Z,13.90
2019-04-10T01:53:39.122Z,15.13
2019-04-10T01:56:21.213Z,15.23
2019-04-10T01:58:41.856Z,16.23
2019-04-10T02:01:34.686Z,14.30
2019-04-10T02:04:04.706Z,14.77
2019-04-10T02:06:34.408Z,15.13
2019-04-10T02:09:06.766Z,13.77
2019-04-10T02:11:37.637Z,15.17
2019-04-10T02:14:07.838Z,13.57
2019-04-10T02:16:55.293Z,13.53
2019-04-10T02:19:26.092Z,12.30
2019-04-10T02:21:56.103Z,12.63
2019-04-10T02:24:25.891Z,13.03
2019-04-10T02:26:56.087Z,11.93
2019-04-10T02:29:26.010Z,12.27
2019-04-10T02:31:57.390Z,12.43
2019-04-10T02:34:28.393Z,11.57
2019-04-10T02:36:58.665Z,11.27
2019-04-10T02:39:37.395Z,11.60
2019-04-10T02:42:00.564Z,10.80
2019-04-10T02:44:30.689Z,11.23
2019-04-10T02:47:01.990Z,12.33
2019-04-10T02:49:32.061Z,11.67
2019-04-10T02:52:01.786Z,12.37
2019-04-10T02:54:31.341Z,11.60
2019-04-10T02:57:01.100Z,11.77
2019-04-10T02:59:31.132Z,11.47
2019-04-10T03:02:02.302Z,10.33
2019-04-10T03:04:33.049Z,11.00
2019-04-10T03:07:04.115Z,11.20
2019-04-10T03:09:49.420Z,10.40
2019-04-10T03:12:06.251Z,10.73
2019-04-10T03:14:36.791Z,11.40
2019-04-10T03:17:07.975Z,11.93
2019-04-10T03:19:37.949Z,11.03
2019-04-10T03:22:09.006Z,12.00
2019-04-10T03:24:40.086Z,10.33
2019-04-10T03:27:10.143Z,10.13
2019-04-10T03:29:40.003Z,9.37
2019-04-10T03:32:33.234Z,9.97
2019-04-10T03:35:04.105Z,10.63
2019-04-10T03:37:34.117Z,10.67
2019-04-10T03:40:04.880Z,10.40
2019-04-10T03:42:34.521Z,10.13
2019-04-10T03:45:05.548Z,10.53
2019-04-10T03:47:35.578Z,10.00
2019-04-10T03:50:06.566Z,10.93
2019-04-10T03:52:36.234Z,9.87
2019-04-10T03:55:05.896Z,11.03
2019-04-10T03:57:36.408Z,11.00
2019-04-10T04:00:06.513Z,9.83
2019-04-10T04:02:36.704Z,10.27
2019-04-10T04:05:06.573Z,10.67
2019-04-10T04:07:36.826Z,10.10
2019-04-10T04:10:06.773Z,10.33
2019-04-10T04:12:37.026Z,10.97
2019-04-10T04:15:07.115Z,8.73
2019-04-10T04:17:36.702Z,9.87
2019-04-10T04:20:06.572Z,11.03
2019-04-10T04:22:37.004Z,9.77
2019-04-10T04:25:08.707Z,10.57
2019-04-10T04:27:38.451Z,10.67
2019-04-10T04:30:08.475Z,11.47
2019-04-10T04:32:38.197Z,11.30
2019-04-10T04:35:08.992Z,10.07
2019-04-10T04:37:38.621Z,10.23
2019-04-10T04:40:09.042Z,11.97
2019-04-10T04:42:38.833Z,11.00
2019-04-10T04:45:08.755Z,10.83
2019-04-10T04:47:39.168Z,9.87
2019-04-10T04:50:09.791Z,10.23
2019-04-10T04:52:39.697Z,10.53
2019-04-10T04:55:10.119Z,10.30
2019-04-10T04:57:41.048Z,10.43
2019-04-10T05:00:11.726Z,10.27
2019-04-10T05:02:42.620Z,11.00
2019-04-10T05:05:12.395Z,10.50
2019-04-10T05:07:54.743Z,9.53
2019-04-10T05:10:15.389Z,10.43
2019-04-10T05:12:45.221Z,10.20
2019-04-10T05:15:16.405Z,11.30
2019-04-10T05:17:47.010Z,10.53
2019-04-10T05:20:17.045Z,10.80
2019-04-10T05:22:46.733Z,10.67
2019-04-10T05:25:16.831Z,10.83
2019-04-10T05:27:46.927Z,10.80
2019-04-10T05:30:16.555Z,11.57
2019-04-10T05:32:47.281Z,11.83
2019-04-10T05:35:17.275Z,10.90
2019-04-10T05:37:47.842Z,12.27
2019-04-10T05:40:17.789Z,10.83
2019-04-10T05:42:47.913Z,10.00
2019-04-10T05:45:19.232Z,11.30
2019-04-10T05:47:48.780Z,11.57
2019-04-10T05:50:19.368Z,12.93
2019-04-10T05:52:49.788Z,10.53
2019-04-10T05:55:20.433Z,12.87
2019-04-10T05:57:51.116Z,11.73
2019-04-10T06:00:22.972Z,11.90
2019-04-10T06:02:52.642Z,12.07
2019-04-10T06:05:22.542Z,11.00
2019-04-10T06:07:53.824Z,10.70
2019-04-10T06:10:24.668Z,10.50
2019-04-10T06:13:13.289Z,10.60
2019-04-10T06:15:43.376Z,11.07
2019-04-10T06:18:13.927Z,12.00
2019-04-10T06:20:45.257Z,11.07
2019-04-10T06:23:15.054Z,11.13
2019-04-10T06:25:45.816Z,10.77
2019-04-10T06:28:16.923Z,10.17
2019-04-10T06:30:48.038Z,9.73
2019-04-10T06:33:30.311Z,10.90
2019-04-10T06:36:00.819Z,11.10
2019-04-10T06:38:30.868Z,10.00
2019-04-10T06:41:00.528Z,10.83
2019-04-10T06:43:48.244Z,11.77
2019-04-10T06:46:17.796Z,10.67
2019-04-10T06:48:47.950Z,13.33
2019-04-10T06:51:19.809Z,10.93
2019-04-10T06:54:00.103Z,12.00
2019-04-10T06:56:20.866Z,12.40
2019-04-10T06:58:52.004Z,13.03
2019-04-10T07:01:23.518Z,12.40
2019-04-10T07:04:09.767Z,12.40
2019-04-10T07:06:55.930Z,10.37
2019-04-10T07:09:24.483Z,11.43
2019-04-10T07:11:56.872Z,12.30
2019-04-10T07:14:24.689Z,12.03
2019-04-10T07:16:54.936Z,11.73
2019-04-10T07:19:24.659Z,12.00
2019-04-10T07:21:55.252Z,13.17
2019-04-10T07:24:25.420Z,12.10
2019-04-10T07:26:55.270Z,11.87
2019-04-10T07:29:27.645Z,10.27
2019-04-10T07:31:56.503Z,10.87
2019-04-10T07:34:29.490Z,12.47
2019-04-10T07:36:58.146Z,11.33
2019-04-10T07:39:30.378Z,11.13
2019-04-10T07:41:59.986Z,12.73
2019-04-10T07:44:29.710Z,11.53
2019-04-10T07:47:00.861Z,12.43
2019-04-10T07:49:31.437Z,10.90
2019-04-10T07:52:02.481Z,10.07
2019-04-10T07:54:33.168Z,11.87
2019-04-10T07:57:02.796Z,11.43
2019-04-10T07:59:33.324Z,10.10
2019-04-10T08:02:05.951Z,12.07
2019-04-10T08:04:35.378Z,11.33
2019-04-10T08:07:05.459Z,11.33
2019-04-10T08:09:36.018Z,11.47
2019-04-10T08:12:07.180Z,10.63
2019-04-10T08:14:46.539Z,12.40
2019-04-10T08:17:16.392Z,12.53
2019-04-10T08:19:46.713Z,11.37
2019-04-10T08:22:16.536Z,12.77
2019-04-10T08:24:47.275Z,11.03
2019-04-10T08:27:17.615Z,11.37
2019-04-10T08:29:48.393Z,10.97
2019-04-10T08:32:18.446Z,11.00
2019-04-10T08:34:48.795Z,11.27
2019-04-10T08:37:20.638Z,10.90
2019-04-10T08:39:51.387Z,10.87
2019-04-10T08:42:22.432Z,10.93
2019-04-10T08:44:52.228Z,10.60
2019-04-10T08:47:22.753Z,12.47
2019-04-10T08:49:52.867Z,11.57
2019-04-10T08:52:22.520Z,11.10
2019-04-10T08:54:53.152Z,12.83
2019-04-10T08:57:22.877Z,12.03
2019-04-10T08:59:52.716Z,10.27
2019-04-10T09:02:22.497Z,12.03
2019-04-10T09:04:53.117Z,12.57
2019-04-10T09:07:22.812Z,11.87
2019-04-10T09:09:52.641Z,11.77
2019-04-10T09:12:22.484Z,12.27
2019-04-10T09:14:52.304Z,11.83
2019-04-10T09:17:22.819Z,11.67
2019-04-10T09:20:53.101Z,11.17
2019-04-10T09:23:33.053Z,11.43
2019-04-10T09:25:54.095Z,11.33
2019-04-10T09:28:24.368Z,12.33
2019-04-10T09:30:55.256Z,11.07
2019-04-10T09:33:28.221Z,11.57
2019-04-10T09:35:57.193Z,11.83
2019-04-10T09:38:26.764Z,11.60
2019-04-10T09:40:57.338Z,11.03
2019-04-10T09:43:27.396Z,11.40
2019-04-10T09:45:57.408Z,11.17
2019-04-10T09:48:27.043Z,10.13
2019-04-10T09:51:00.310Z,11.37
2019-04-10T09:53:30.016Z,11.53
2019-04-10T09:55:59.708Z,11.70
2019-04-10T09:58:29.555Z,12.03
2019-04-10T10:01:01.414Z,12.03
2019-04-10T10:03:32.509Z,11.07
2019-04-10T10:06:02.158Z,11.37
2019-04-10T10:08:32.364Z,11.07
2019-04-10T10:11:02.217Z,11.67
2019-04-10T10:13:31.876Z,10.87
2019-04-10T10:16:02.893Z,11.50
2019-04-10T10:18:33.155Z,11.03
2019-04-10T10:21:04.115Z,9.20
2019-04-10T10:23:33.986Z,8.87
2019-04-10T10:26:03.832Z,8.13
2019-04-10T10:28:33.829Z,10.37
2019-04-10T10:31:04.055Z,10.43
2019-04-10T10:33:34.098Z,9.70
2019-04-10T10:36:04.073Z,9.73
2019-04-10T10:38:34.862Z,9.57
2019-04-10T10:41:04.925Z,8.43
2019-04-10T10:43:34.770Z,9.67
2019-04-10T10:46:04.496Z,10.13
2019-04-10T10:48:34.052Z,10.43
2019-04-10T10:51:04.608Z,9.57
2019-04-10T10:53:34.561Z,9.93
2019-04-10T10:56:04.521Z,10.37
2019-04-10T10:58:35.265Z,10.07
2019-04-10T11:01:05.374Z,9.63
2019-04-10T11:03:35.272Z,8.47
2019-04-10T11:06:04.820Z,9.50
2019-04-10T11:08:35.498Z,8.57
2019-04-10T11:11:06.241Z,9.40
2019-04-10T11:13:36.995Z,9.60
2019-04-10T11:16:07.526Z,10.87
2019-04-10T11:18:38.034Z,9.80
2019-04-10T11:21:11.306Z,10.70
2019-04-10T11:23:39.069Z,8.47
2019-04-10T11:26:08.693Z,8.27
2019-04-10T11:28:39.286Z,9.50
2019-04-10T11:31:09.292Z,9.43
2019-04-10T11:33:39.909Z,9.37
2019-04-10T11:36:10.336Z,9.27
2019-04-10T11:38:42.159Z,10.23
2019-04-10T11:41:12.517Z,8.90
2019-04-10T11:44:00.205Z,8.17
2019-04-10T11:46:32.103Z,8.53
2019-04-10T11:49:02.551Z,9.07
2019-04-10T11:51:34.250Z,9.20
2019-04-10T11:54:07.298Z,8.67
2019-04-10T11:56:36.310Z,9.20
2019-04-10T11:59:09.280Z,8.80
2019-04-10T12:01:39.255Z,8.70
2019-04-10T12:04:10.766Z,9.93
2019-04-10T12:06:40.720Z,9.73
2019-04-10T12:10:01.946Z,10.23
2019-04-10T12:11:48.937Z,10.40
2019-04-10T12:14:19.425Z,9.70
2019-04-10T12:16:49.494Z,9.47
2019-04-10T12:19:19.354Z,9.60
2019-04-10T12:21:50.306Z,9.60
2019-04-10T12:24:20.015Z,9.33
2019-04-10T12:26:49.928Z,8.90
2019-04-10T12:29:19.905Z,8.70
2019-04-10T12:31:50.304Z,9.33
2019-04-10T12:34:20.252Z,8.47
2019-04-10T12:36:51.831Z,9.13
2019-04-10T12:39:22.548Z,8.97
2019-04-10T12:41:52.308Z,8.80
2019-04-10T12:44:23.160Z,9.77
2019-04-10T12:46:53.334Z,9.37
2019-04-10T12:49:23.439Z,8.87
2019-04-10T12:51:54.149Z,9.90
2019-04-10T12:54:24.097Z,10.20
2019-04-10T12:56:54.654Z,9.93
2019-04-10T12:59:25.700Z,9.60
2019-04-10T13:01:55.509Z,9.80
2019-04-10T13:04:25.581Z,10.40
2019-04-10T13:06:56.894Z,10.67
2019-04-10T13:09:27.100Z,10.57
2019-04-10T13:11:56.989Z,10.23
2019-04-10T13:14:27.113Z,9.50
2019-04-10T13:16:57.012Z,9.93
2019-04-10T13:19:27.116Z,9.93
2019-04-10T13:21:57.894Z,9.83
2019-04-10T13:24:27.949Z,8.93
2019-04-10T13:26:58.591Z,9.40
2019-04-10T13:29:28.308Z,9.20
2019-04-10T13:31:57.877Z,8.73
2019-04-10T13:34:27.741Z,8.40
2019-04-10T13:36:57.272Z,7.83
2019-04-10T13:39:27.256Z,7.20
2019-04-10T13:41:57.173Z,8.20
2019-04-10T13:44:26.713Z,7.67
2019-04-10T13:46:57.354Z,8.40
2019-04-10T13:49:28.297Z,8.40
2019-04-10T13:51:59.521Z,8.47
2019-04-10T13:54:30.456Z,8.73
2019-04-10T13:57:00.142Z,8.70
2019-04-10T13:59:31.174Z,8.43
2019-04-10T14:02:13.172Z,8.37
2019-04-10T14:04:43.010Z,8.27
2019-04-10T14:07:13.409Z,8.47
2019-04-10T14:09:48.237Z,9.33
2019-04-10T14:12:14.673Z,9.23
2019-04-10T14:14:44.620Z,8.10
2019-04-10T14:17:14.648Z,7.87
2019-04-10T14:19:45.541Z,8.27
2019-04-10T14:22:15.659Z,8.30
2019-04-10T14:24:48.226Z,8.77
2019-04-10T14:27:22.549Z,8.67
2019-04-10T14:29:52.762Z,8.47
2019-04-10T14:32:37.525Z,9.20
2019-04-10T14:35:09.428Z,8.27
2019-04-10T14:37:39.455Z,9.20
2019-04-10T14:40:11.489Z,9.43
2019-04-10T14:42:42.473Z,9.37
2019-04-10T14:45:13.138Z,9.40
2019-04-10T14:47:43.485Z,9.43
2019-04-10T14:50:13.659Z,10.00
2019-04-10T14:52:43.587Z,10.50
2019-04-10T14:55:14.449Z,10.17
2019-04-10T14:57:45.255Z,9.80
2019-04-10T15:00:44.531Z,10.67
2019-04-10T15:03:14.374Z,9.33
2019-04-10T15:05:49.797Z,9.60
2019-04-10T15:08:15.852Z,10.53
2019-04-10T15:10:45.861Z,10.07
2019-04-10T15:13:19.778Z,10.63
2019-04-10T15:15:48.281Z,9.60
2019-04-10T15:18:18.495Z,9.97
2019-04-10T15:20:49.359Z,9.80
2019-04-10T15:23:19.014Z,10.37
2019-04-10T15:25:49.277Z,9.53
2019-04-10T15:28:19.252Z,10.93
2019-04-10T15:30:48.826Z,11.00
2019-04-10T15:33:18.447Z,10.87
2019-04-10T15:35:48.570Z,10.73
2019-04-10T15:38:18.386Z,10.93
2019-04-10T15:40:48.498Z,9.87
2019-04-10T15:43:18.809Z,10.37
2019-04-10T15:45:54.688Z,10.47
2019-04-10T15:48:25.236Z,10.70
2019-04-10T15:50:55.896Z,10.60
2019-04-10T15:53:26.496Z,9.20
2019-04-10T15:55:57.787Z,10.23
2019-04-10T15:58:27.776Z,10.40
2019-04-10T16:00:59.385Z,9.70
2019-04-10T16:03:30.344Z,8.93
2019-04-10T16:06:00.375Z,9.03
2019-04-10T16:08:32.450Z,9.47
2019-04-10T16:11:19.878Z,9.60
2019-04-10T16:13:52.684Z,9.07
2019-04-10T16:16:42.290Z,9.40
2019-04-10T16:19:30.718Z,9.63
2019-04-10T16:22:02.722Z,8.77
2019-04-10T16:24:33.098Z,9.13
2019-04-10T16:27:03.464Z,8.47
2019-04-10T16:29:34.291Z,9.60
2019-04-10T16:32:04.917Z,8.70
2019-04-10T16:34:34.561Z,8.53
2019-04-10T16:37:04.277Z,9.83
2019-04-10T16:39:34.304Z,9.07
2019-04-10T16:42:03.939Z,9.43
2019-04-10T16:44:33.505Z,8.87
2019-04-10T16:47:03.762Z,8.50
2019-04-10T16:49:34.988Z,8.73
2019-04-10T16:52:05.002Z,8.03
2019-04-10T16:54:35.421Z,7.93
2019-04-10T16:57:05.192Z,7.40
2019-04-10T16:59:34.747Z,7.47
2019-04-10T17:02:04.364Z,7.87
2019-04-10T17:04:34.066Z,7.50
2019-04-10T17:07:03.864Z,7.87
2019-04-10T17:09:34.486Z,7.20
2019-04-10T17:12:06.287Z,8.10
2019-04-10T17:14:35.643Z,6.97
2019-04-10T17:17:06.210Z,7.40
2019-04-10T17:19:46.351Z,6.90
2019-04-10T17:22:30.106Z,8.37
2019-04-10T17:24:50.374Z,7.70
2019-04-10T17:27:21.603Z,6.10
2019-04-10T17:29:52.009Z,6.80
2019-04-10T17:32:21.937Z,6.43
2019-04-10T17:34:51.673Z,6.37
2019-04-10T17:37:21.384Z,6.87
2019-04-10T17:39:57.746Z,8.03
2019-04-10T17:42:28.281Z,8.93
2019-04-10T17:44:58.260Z,8.10
2019-04-10T17:47:29.177Z,8.87
2019-04-10T17:50:00.166Z,7.50
2019-04-10T17:52:33.064Z,7.60
2019-04-10T17:55:03.065Z,7.80
2019-04-10T17:57:38.208Z,7.33
2019-04-10T18:00:08.991Z,7.40
2019-04-10T18:02:38.917Z,7.53
2019-04-10T18:05:08.736Z,6.77
2019-04-10T18:07:38.526Z,6.80
2019-04-10T18:10:09.608Z,6.67
2019-04-10T18:12:39.240Z,7.27
2019-04-10T18:15:09.396Z,7.50
2019-04-10T18:17:40.789Z,6.57
2019-04-10T18:20:11.123Z,7.23
2019-04-10T18:22:40.923Z,6.20
2019-04-10T18:25:11.830Z,7.10
2019-04-10T18:27:58.118Z,7.80
2019-04-10T18:30:34.503Z,6.62
2019-04-10T18:33:05.081Z,6.80
2019-04-10T18:35:35.320Z,6.70
2019-04-10T18:38:05.655Z,7.57
2019-04-10T18:40:35.546Z,7.17
2019-04-10T18:43:05.257Z,6.95
2019-04-10T18:45:35.585Z,5.63
2019-04-10T18:48:06.231Z,6.07
2019-04-10T18:50:36.238Z,5.70
2019-04-10T18:53:05.819Z,6.80
2019-04-10T18:55:36.451Z,6.30
2019-04-10T18:58:09.593Z,6.67
2019-04-10T19:00:59.473Z,5.73
2019-04-10T19:03:53.355Z,6.47
2019-04-10T19:06:24.938Z,5.87
2019-04-10T19:09:07.599Z,5.73
2019-04-10T19:11:30.219Z,6.60
2019-04-10T19:13:57.834Z,6.23
2019-04-10T19:16:29.751Z,6.10
2019-04-10T19:18:59.861Z,6.40
2019-04-10T19:21:29.637Z,6.23
2019-04-10T19:23:59.394Z,5.87
2019-04-10T19:26:29.485Z,6.43
2019-04-10T19:28:59.196Z,5.43
2019-04-10T19:31:29.870Z,5.53
2019-04-10T19:33:59.533Z,6.00
2019-04-10T19:36:29.972Z,6.03
2019-04-10T19:38:59.990Z,5.90
2019-04-10T19:41:36.676Z,5.73
2019-04-10T19:44:06.462Z,5.80
2019-04-10T19:46:37.583Z,5.73
2019-04-10T19:49:08.250Z,5.90
2019-04-10T19:51:38.521Z,6.30
2019-04-10T19:54:09.667Z,6.13
2019-04-10T19:56:40.473Z,5.53
2019-04-10T19:59:10.509Z,6.17
2019-04-10T20:01:40.672Z,5.57
2019-04-10T20:04:12.450Z,6.13
2019-04-10T20:06:42.728Z,5.80
2019-04-10T20:09:13.124Z,6.37
2019-04-10T20:11:48.641Z,5.90
2019-04-10T20:14:15.281Z,6.03
2019-04-10T20:16:45.047Z,6.60
2019-04-10T20:19:15.208Z,6.57
2019-04-10T20:21:45.160Z,6.00
2019-04-10T20:24:14.705Z,5.33
2019-04-10T20:26:45.349Z,5.77
2019-04-10T20:29:15.204Z,6.73
2019-04-10T20:31:45.677Z,6.50
2019-04-10T20:34:15.750Z,7.80
2019-04-10T20:36:45.340Z,6.33
2019-04-10T20:39:16.871Z,6.80
2019-04-10T20:41:51.868Z,7.47
2019-04-10T20:44:18.818Z,7.50
2019-04-10T20:46:48.762Z,8.17
2019-04-10T20:49:18.491Z,6.90
2019-04-10T20:51:49.014Z,8.33
2019-04-10T20:54:20.377Z,8.17
2019-04-10T20:56:50.806Z,7.83
2019-04-10T20:59:20.413Z,8.03
2019-04-10T21:01:50.244Z,7.00
2019-04-10T21:04:19.854Z,8.70
2019-04-10T21:06:50.106Z,8.30
2019-04-10T21:09:20.244Z,8.43
2019-04-10T21:12:00.828Z,8.00
2019-04-10T21:14:21.424Z,8.03
2019-04-10T21:17:03.132Z,8.33
2019-04-10T21:19:33.449Z,8.20
2019-04-10T21:22:03.785Z,7.90
2019-04-10T21:24:33.667Z,8.17
2019-04-10T21:27:03.558Z,8.33
2019-04-10T21:29:55.380Z,8.37
2019-04-10T21:32:55.304Z,8.43
2019-04-10T21:35:29.860Z,7.93
2019-04-10T21:37:59.409Z,8.80
2019-04-10T21:40:29.214Z,9.07
2019-04-10T21:42:58.772Z,7.97
2019-04-10T21:45:28.308Z,8.20
2019-04-10T21:47:57.911Z,8.70
2019-04-10T21:50:27.512Z,7.97
2019-04-10T21:52:57.513Z,8.90
2019-04-10T21:55:27.071Z,9.17
2019-04-10T21:57:57.621Z,9.03
2019-04-10T22:00:45.228Z,8.40
2019-04-10T22:03:14.848Z,8.47
2019-04-10T22:05:46.872Z,6.97
2019-04-10T22:08:39.358Z,8.33
2019-04-10T22:11:09.529Z,8.67
2019-04-10T22:13:40.089Z,8.50
2019-04-10T22:16:11.519Z,7.98
2019-04-10T22:18:41.457Z,9.60
2019-04-10T22:21:12.400Z,7.30
2019-04-10T22:23:42.714Z,8.63
2019-04-10T22:26:13.730Z,7.93
2019-04-10T22:28:43.644Z,8.20
2019-04-10T22:31:13.734Z,8.53
2019-04-10T22:33:44.674Z,8.23
2019-04-10T22:36:14.984Z,8.07
2019-04-10T22:38:46.144Z,7.50
2019-04-10T22:41:23.648Z,7.87
2019-04-10T22:43:49.076Z,8.30
2019-04-10T22:46:19.329Z,8.40
2019-04-10T22:48:49.977Z,8.00
2019-04-10T22:51:19.614Z,8.03
2019-04-10T22:53:50.046Z,7.90
2019-04-10T22:56:20.963Z,7.90
2019-04-10T22:58:51.170Z,7.57
2019-04-10T23:01:20.896Z,7.93
2019-04-10T23:03:50.443Z,7.93
2019-04-10T23:06:20.821Z,7.80
2019-04-10T23:08:51.614Z,8.27
2019-04-10T23:11:34.150Z,7.80
2019-04-10T23:13:52.800Z,8.63
2019-04-10T23:16:22.428Z,7.73
2019-04-10T23:18:51.978Z,8.37
2019-04-10T23:21:22.708Z,6.70
2019-04-10T23:23:52.361Z,9.00
2019-04-10T23:26:22.840Z,7.50
2019-04-10T23:28:52.672Z,8.03
2019-04-10T23:31:23.739Z,7.80
2019-04-10T23:33:54.414Z,7.47
2019-04-10T23:36:24.671Z,7.20
2019-04-10T23:38:55.243Z,7.43
2019-04-10T23:41:25.540Z,7.00
2019-04-10T23:43:55.797Z,8.03
2019-04-10T23:46:26.383Z,7.17
2019-04-10T23:48:57.207Z,7.97
2019-04-10T23:51:27.443Z,7.87
2019-04-10T23:53:57.243Z,7.90
2019-04-10T23:56:27.375Z,7.27
2019-04-10T23:58:58.175Z,7.40
